Vielsalm, Belgium
Current Conditions -  °F | °C
As of 3:25 PM on Thursday 30 Oct 2014 (Local Time) from EBLB Reporting Station
Broken Clouds Broken Clouds  
Wind Chill: 57°   Ceiling: 14000
Heat Index: 57°   Visibility: 6mi
Dew Point: 52°   Wind: 3mph
Humidity: 82%   Direction: 210°SSW
Pressure: 30.24"   Gusts: NA
Location:  50.28°N, 5.92°E
Report Text: EBLB 301425Z 21003KT 9999 BKN140 14/11 Q1024 BLU
Loading
Personal Weather Stations






























Interactive Weather Map
Tropical Storm Tracking
New forecast layout! Learn more

10-Day Weather Forecast

Advertisements
Track Severe Weather on mobile